Time,TemperatureF,DewpointF,PressureIn,WindDirection,WindDirectionDegrees,WindSpeedMPH,WindSpeedGustMPH,Humidity,HourlyPrecipIn,Conditions,Clouds,dailyrainin,SoftwareType,DateUTC
2013-01-31 00:00:00,48.7,42.8,29.70,NNW,335,3.0,9.0,80,0.00,,,0.08,meteohub,2013-01-31 05:00:00,
2013-01-31 00:02:00,48.6,42.6,29.70,NW,323,6.0,9.0,80,0.00,,,0.08,meteohub,2013-01-31 05:02:00,
2013-01-31 00:03:00,48.6,42.6,29.70,WSW,244,4.0,9.0,80,0.00,,,0.08,meteohub,2013-01-31 05:03:00,
2013-01-31 00:08:00,48.4,42.4,29.70,WSW,238,3.0,9.0,80,0.00,,,0.08,meteohub,2013-01-31 05:08:00,
2013-01-31 00:13:00,48.2,42.3,29.70,WSW,239,2.0,8.0,80,0.00,,,0.08,meteohub,2013-01-31 05:13:00,
2013-01-31 00:18:00,48.0,42.1,29.70,SW,233,3.0,9.0,80,0.00,,,0.08,meteohub,2013-01-31 05:18:00,
2013-01-31 00:23:00,47.8,41.9,29.70,WNW,300,4.0,10.0,80,0.00,,,0.08,meteohub,2013-01-31 05:23:00,
2013-01-31 00:28:00,47.8,42.3,29.70,NNE,13,4.0,10.0,81,0.00,,,0.08,meteohub,2013-01-31 05:28:00,
2013-01-31 00:33:00,47.7,41.7,29.68,SW,235,8.0,10.0,80,0.00,,,0.08,meteohub,2013-01-31 05:33:00,
2013-01-31 00:38:00,47.5,41.5,29.68,NW,312,3.0,8.0,80,0.00,,,0.08,meteohub,2013-01-31 05:38:00,
2013-01-31 00:43:00,47.5,41.5,29.68,North,357,3.0,8.0,80,0.00,,,0.08,meteohub,2013-01-31 05:43:00,
2013-01-31 00:48:00,47.3,41.4,29.70,SW,234,3.0,13.0,80,0.00,,,0.08,meteohub,2013-01-31 05:48:00,
2013-01-31 00:53:00,47.3,41.4,29.70,NW,310,3.0,13.0,80,0.00,,,0.08,meteohub,2013-01-31 05:53:00,
2013-01-31 00:58:00,47.3,41.4,29.70,WSW,255,3.0,11.0,80,0.00,,,0.08,meteohub,2013-01-31 05:58:00,
2013-01-31 01:03:00,47.5,41.5,29.70,NNW,337,2.0,11.0,80,0.00,,,0.08,meteohub,2013-01-31 06:03:00,
2013-01-31 01:08:00,47.3,41.4,29.70,North,2,5.0,9.0,80,0.00,,,0.08,meteohub,2013-01-31 06:08:00,
2013-01-31 01:13:00,47.3,41.4,29.70,West,266,6.0,9.0,80,0.00,,,0.08,meteohub,2013-01-31 06:13:00,
2013-01-31 01:18:00,47.1,41.0,29.70,ESE,113,5.0,9.0,79,0.00,,,0.08,meteohub,2013-01-31 06:18:00,
2013-01-31 01:23:00,47.1,41.0,29.70,North,357,6.0,9.0,79,0.00,,,0.08,meteohub,2013-01-31 06:23:00,
2013-01-31 01:28:00,46.9,40.5,29.73,WSW,248,5.0,13.0,78,0.00,,,0.08,meteohub,2013-01-31 06:28:00,
2013-01-31 01:33:00,46.8,39.6,29.73,North,353,5.0,13.0,76,0.00,,,0.08,meteohub,2013-01-31 06:33:00,
2013-01-31 01:38:00,46.2,38.7,29.73,North,2,11.0,13.0,75,0.00,,,0.08,meteohub,2013-01-31 06:38:00,
2013-01-31 01:43:00,45.9,37.8,29.73,WNW,296,6.0,13.0,73,0.00,,,0.08,meteohub,2013-01-31 06:43:00,
2013-01-31 01:48:00,45.3,36.5,29.73,NNE,16,6.0,13.0,71,0.00,,,0.08,meteohub,2013-01-31 06:48:00,
2013-01-31 01:53:00,45.1,36.0,29.73,NW,321,5.0,12.0,70,0.00,,,0.08,meteohub,2013-01-31 06:53:00,
2013-01-31 01:58:00,44.8,35.2,29.76,NW,313,6.0,12.0,69,0.00,,,0.08,meteohub,2013-01-31 06:58:00,
2013-01-31 02:03:00,44.6,35.1,29.76,SW,219,8.0,10.0,69,0.00,,,0.08,meteohub,2013-01-31 07:03:00,
2013-01-31 02:08:00,44.2,34.3,29.76,NW,321,7.0,11.0,68,0.00,,,0.08,meteohub,2013-01-31 07:08:00,
2013-01-31 02:14:00,44.1,34.2,29.76,NW,307,5.0,12.0,68,0.00,,,0.08,meteohub,2013-01-31 07:14:00,
2013-01-31 02:19:00,44.1,34.2,29.76,NW,322,4.0,12.0,68,0.00,,,0.08,meteohub,2013-01-31 07:19:00,
2013-01-31 02:24:00,43.7,33.8,29.76,North,3,5.0,12.0,68,0.00,,,0.08,meteohub,2013-01-31 07:24:00,
2013-01-31 02:29:00,43.5,33.6,29.76,NNE,28,2.0,9.0,68,0.00,,,0.08,meteohub,2013-01-31 07:29:00,
2013-01-31 02:34:00,43.3,33.4,29.76,NNW,346,6.0,8.0,68,0.00,,,0.08,meteohub,2013-01-31 07:34:00,
2013-01-31 02:39:00,43.3,33.8,29.76,North,0,0.0,8.0,69,0.00,,,0.08,meteohub,2013-01-31 07:39:00,
2013-01-31 02:44:00,43.0,33.4,29.79,NNW,336,0.0,8.0,69,0.00,,,0.08,meteohub,2013-01-31 07:44:00,
2013-01-31 02:49:00,43.0,33.4,29.79,SSW,192,6.0,8.0,69,0.00,,,0.08,meteohub,2013-01-31 07:49:00,
2013-01-31 02:54:00,42.8,33.3,29.79,North,353,4.0,8.0,69,0.00,,,0.08,meteohub,2013-01-31 07:54:00,
2013-01-31 02:59:00,42.6,33.1,29.79,WNW,303,5.0,13.0,69,0.00,,,0.08,meteohub,2013-01-31 07:59:00,
2013-01-31 03:04:00,42.3,32.5,29.79,NNW,341,9.0,13.0,68,0.00,,,0.08,meteohub,2013-01-31 08:04:00,
2013-01-31 03:09:00,42.1,32.7,29.79,WNW,283,0.0,11.0,69,0.00,,,0.08,meteohub,2013-01-31 08:09:00,
2013-01-31 03:14:00,42.1,32.7,29.79,North,10,2.0,12.0,69,0.00,,,0.08,meteohub,2013-01-31 08:14:00,
2013-01-31 03:19:00,41.7,32.0,29.79,West,278,6.0,12.0,68,0.00,,,0.08,meteohub,2013-01-31 08:19:00,
2013-01-31 03:24:00,41.7,32.0,29.79,North,357,4.0,12.0,68,0.00,,,0.08,meteohub,2013-01-31 08:24:00,
2013-01-31 03:29:00,41.5,31.8,29.79,WNW,294,3.0,12.0,68,0.00,,,0.08,meteohub,2013-01-31 08:29:00,
2013-01-31 03:34:00,41.4,31.3,29.79,North,357,5.0,12.0,67,0.00,,,0.08,meteohub,2013-01-31 08:34:00,
2013-01-31 03:39:00,41.2,30.4,29.79,WNW,287,4.0,10.0,65,0.00,,,0.08,meteohub,2013-01-31 08:39:00,
2013-01-31 03:57:00,40.6,28.6,29.82,NW,325,5.0,13.0,62,0.00,,,0.08,meteohub,2013-01-31 08:57:00,
2013-01-31 04:02:00,40.5,28.0,29.82,West,260,8.0,11.0,61,0.00,,,0.08,meteohub,2013-01-31 09:02:00,
2013-01-31 04:07:00,40.3,27.5,29.82,North,3,5.0,11.0,60,0.00,,,0.08,meteohub,2013-01-31 09:07:00,
2013-01-31 04:12:00,40.1,27.0,29.82,North,6,5.0,11.0,59,0.00,,,0.08,meteohub,2013-01-31 09:12:00,
2013-01-31 04:17:00,39.9,26.4,29.85,NNE,20,6.0,11.0,58,0.00,,,0.08,meteohub,2013-01-31 09:17:00,
2013-01-31 04:22:00,39.7,25.7,29.85,WNW,303,3.0,11.0,57,0.00,,,0.08,meteohub,2013-01-31 09:22:00,
2013-01-31 04:27:00,39.6,25.2,29.85,SW,221,3.0,11.0,56,0.00,,,0.08,meteohub,2013-01-31 09:27:00,
2013-01-31 04:32:00,39.4,25.0,29.85,North,353,6.0,11.0,56,0.00,,,0.08,meteohub,2013-01-31 09:32:00,
2013-01-31 04:37:00,39.4,24.6,29.85,NNW,341,8.0,11.0,55,0.00,,,0.08,meteohub,2013-01-31 09:37:00,
2013-01-31 04:42:00,39.2,24.4,29.85,North,8,5.0,11.0,55,0.00,,,0.08,meteohub,2013-01-31 09:42:00,
2013-01-31 04:47:00,39.0,24.3,29.85,NW,308,7.0,11.0,55,0.00,,,0.08,meteohub,2013-01-31 09:47:00,
2013-01-31 04:52:00,38.8,23.5,29.85,NNE,16,3.0,9.0,54,0.00,,,0.08,meteohub,2013-01-31 09:52:00,
2013-01-31 04:57:00,38.7,23.4,29.85,North,353,0.0,9.0,54,0.00,,,0.08,meteohub,2013-01-31 09:57:00,
2013-01-31 05:02:00,38.7,23.4,29.88,NNE,14,6.0,9.0,54,0.00,,,0.08,meteohub,2013-01-31 10:02:00,
2013-01-31 05:07:00,38.5,23.4,29.88,NNE,15,3.0,9.0,54,0.00,,,0.08,meteohub,2013-01-31 10:07:00,
2013-01-31 05:12:00,38.5,23.4,29.88,North,353,6.0,9.0,54,0.00,,,0.08,meteohub,2013-01-31 10:12:00,
2013-01-31 05:17:00,38.3,23.2,29.88,NNE,14,4.0,11.0,54,0.00,,,0.08,meteohub,2013-01-31 10:17:00,
2013-01-31 05:22:00,38.1,22.5,29.88,NNE,12,0.0,11.0,53,0.00,,,0.08,meteohub,2013-01-31 10:22:00,
2013-01-31 05:27:00,38.1,22.5,29.88,NNW,343,5.0,11.0,53,0.00,,,0.08,meteohub,2013-01-31 10:27:00,
2013-01-31 05:32:00,37.9,22.3,29.88,WNW,289,3.0,9.0,53,0.00,,,0.08,meteohub,2013-01-31 10:32:00,
2013-01-31 05:37:00,37.8,22.1,29.88,North,357,4.0,8.0,53,0.00,,,0.08,meteohub,2013-01-31 10:37:00,
2013-01-31 05:42:00,37.9,22.3,29.88,North,5,4.0,11.0,53,0.00,,,0.08,meteohub,2013-01-31 10:42:00,
2013-01-31 05:47:00,37.6,21.6,29.91,NW,324,4.0,11.0,52,0.00,,,0.08,meteohub,2013-01-31 10:47:00,
2013-01-31 05:52:00,37.6,21.6,29.91,North,3,8.0,8.0,52,0.00,,,0.08,meteohub,2013-01-31 10:52:00,
2013-01-31 05:58:00,37.4,20.8,29.91,North,4,4.0,11.0,51,0.00,,,0.08,meteohub,2013-01-31 10:58:00,
2013-01-31 06:03:00,37.2,20.8,29.91,NNW,340,3.0,11.0,51,0.00,,,0.08,meteohub,2013-01-31 11:03:00,
2013-01-31 06:08:00,37.0,20.7,29.91,NNE,12,6.0,11.0,51,0.00,,,0.08,meteohub,2013-01-31 11:08:00,
2013-01-31 06:13:00,37.2,20.8,29.91,NNE,30,3.0,11.0,51,0.00,,,0.08,meteohub,2013-01-31 11:13:00,
2013-01-31 06:18:00,37.0,20.7,29.91,NNW,327,4.0,11.0,51,0.00,,,0.08,meteohub,2013-01-31 11:18:00,
2013-01-31 06:23:00,36.9,20.5,29.91,NNW,342,5.0,8.0,51,0.00,,,0.08,meteohub,2013-01-31 11:23:00,
2013-01-31 06:28:00,36.9,20.5,29.91,NNW,341,8.0,8.0,51,0.00,,,0.08,meteohub,2013-01-31 11:28:00,
2013-01-31 06:33:00,36.7,20.3,29.91,NNW,346,4.0,8.0,51,0.00,,,0.08,meteohub,2013-01-31 11:33:00,
2013-01-31 06:38:00,36.7,20.3,29.91,NNE,30,4.0,8.0,51,0.00,,,0.08,meteohub,2013-01-31 11:38:00,
2013-01-31 06:43:00,36.5,20.1,29.91,East,79,0.0,8.0,51,0.00,,,0.08,meteohub,2013-01-31 11:43:00,
2013-01-31 06:48:00,36.7,20.3,29.94,North,353,3.0,8.0,51,0.00,,,0.08,meteohub,2013-01-31 11:48:00,
2013-01-31 06:53:00,36.5,20.1,29.94,North,353,3.0,7.0,51,0.00,,,0.08,meteohub,2013-01-31 11:53:00,
2013-01-31 06:58:00,36.5,20.1,29.97,NW,315,3.0,6.0,51,0.00,,,0.08,meteohub,2013-01-31 11:58:00,
2013-01-31 07:03:00,36.3,19.9,29.97,NNE,31,3.0,6.0,51,0.00,,,0.08,meteohub,2013-01-31 12:03:00,
2013-01-31 07:08:00,36.3,19.9,29.97,NNE,31,0.0,6.0,51,0.00,,,0.08,meteohub,2013-01-31 12:08:00,
2013-01-31 07:13:00,36.1,19.8,29.97,WNW,297,0.0,6.0,51,0.00,,,0.08,meteohub,2013-01-31 12:13:00,
2013-01-31 07:18:00,36.1,19.8,29.97,North,357,5.0,8.0,51,0.00,,,0.08,meteohub,2013-01-31 12:18:00,
2013-01-31 07:23:00,36.1,19.8,29.97,West,279,4.0,8.0,51,0.00,,,0.08,meteohub,2013-01-31 12:23:00,
2013-01-31 07:28:00,36.1,20.3,29.97,NE,35,4.0,8.0,52,0.00,,,0.08,meteohub,2013-01-31 12:28:00,
2013-01-31 07:33:00,36.1,20.3,29.97,NNW,331,5.0,8.0,52,0.00,,,0.08,meteohub,2013-01-31 12:33:00,
2013-01-31 07:38:00,36.1,20.3,29.97,North,353,5.0,8.0,52,0.00,,,0.08,meteohub,2013-01-31 12:38:00,
2013-01-31 07:44:00,36.1,20.3,29.97,NW,322,5.0,8.0,52,0.00,,,0.08,meteohub,2013-01-31 12:44:00,
2013-01-31 07:49:00,36.1,20.3,29.97,NNW,344,6.0,8.0,52,0.00,,,0.08,meteohub,2013-01-31 12:49:00,
2013-01-31 07:54:00,36.1,20.3,29.97,NNW,334,4.0,8.0,52,0.00,,,0.08,meteohub,2013-01-31 12:54:00,
2013-01-31 07:59:00,36.5,20.5,29.97,NNW,348,5.0,8.0,52,0.00,,,0.08,meteohub,2013-01-31 12:59:00,
2013-01-31 08:04:00,42.1,24.3,29.97,NNW,341,3.0,8.0,49,0.00,,,0.08,meteohub,2013-01-31 13:04:00,
2013-01-31 08:09:00,48.0,25.5,29.97,North,353,4.0,8.0,41,0.00,,,0.08,meteohub,2013-01-31 13:09:00,
2013-01-31 08:14:00,50.0,24.8,30.00,North,357,5.0,10.0,37,0.00,,,0.08,meteohub,2013-01-31 13:14:00,
2013-01-31 08:19:00,51.1,25.7,30.00,North,2,3.0,11.0,37,0.00,,,0.08,meteohub,2013-01-31 13:19:00,
2013-01-31 08:24:00,50.5,23.9,30.00,NNW,333,6.0,11.0,35,0.00,,,0.08,meteohub,2013-01-31 13:24:00,
2013-01-31 08:29:00,51.6,24.1,30.00,West,277,4.0,11.0,34,0.00,,,0.08,meteohub,2013-01-31 13:29:00,
2013-01-31 08:34:00,52.5,22.8,30.00,NNE,21,3.0,6.0,31,0.00,,,0.08,meteohub,2013-01-31 13:34:00,
2013-01-31 08:39:00,51.8,22.1,30.00,SW,222,4.0,10.0,31,0.00,,,0.08,meteohub,2013-01-31 13:39:00,
2013-01-31 08:44:00,51.1,21.6,30.00,NNW,334,4.0,10.0,31,0.00,,,0.08,meteohub,2013-01-31 13:44:00,
2013-01-31 08:49:00,46.4,18.9,30.00,North,2,4.0,10.0,33,0.00,,,0.08,meteohub,2013-01-31 13:49:00,
2013-01-31 08:55:00,43.7,19.0,30.00,West,265,6.0,11.0,37,0.00,,,0.08,meteohub,2013-01-31 13:55:00,
2013-01-31 09:00:00,42.6,18.9,30.00,NNE,12,6.0,11.0,38,0.00,,,0.08,meteohub,2013-01-31 14:00:00,
2013-01-31 09:05:00,42.3,19.0,30.00,WNW,289,3.0,11.0,39,0.00,,,0.08,meteohub,2013-01-31 14:05:00,
2013-01-31 09:10:00,41.5,18.5,30.00,WNW,288,0.0,9.0,39,0.00,,,0.08,meteohub,2013-01-31 14:10:00,
2013-01-31 09:15:00,41.4,18.9,30.00,NW,309,4.0,8.0,40,0.00,,,0.08,meteohub,2013-01-31 14:15:00,
2013-01-31 09:20:00,41.0,18.5,30.00,West,268,4.0,9.0,40,0.00,,,0.08,meteohub,2013-01-31 14:20:00,
2013-01-31 09:25:00,40.8,18.9,30.00,NW,314,5.0,9.0,41,0.00,,,0.08,meteohub,2013-01-31 14:25:00,
2013-01-31 09:30:00,40.5,18.7,30.00,NW,322,4.0,11.0,41,0.00,,,0.08,meteohub,2013-01-31 14:30:00,
2013-01-31 09:35:00,40.5,18.7,30.00,North,353,5.0,11.0,41,0.00,,,0.08,meteohub,2013-01-31 14:35:00,
2013-01-31 09:41:00,40.5,18.7,30.00,North,2,5.0,11.0,41,0.00,,,0.08,meteohub,2013-01-31 14:41:00,
2013-01-31 09:46:00,40.5,19.2,30.03,NNW,341,6.0,9.0,42,0.00,,,0.08,meteohub,2013-01-31 14:46:00,
2013-01-31 09:52:00,40.5,19.2,30.03,WNW,287,5.0,9.0,42,0.00,,,0.08,meteohub,2013-01-31 14:52:00,
2013-01-31 09:57:00,40.6,19.4,30.03,NNW,338,4.0,8.0,42,0.00,,,0.08,meteohub,2013-01-31 14:57:00,
2013-01-31 10:02:00,40.6,19.4,30.03,North,353,3.0,8.0,42,0.00,,,0.08,meteohub,2013-01-31 15:02:00,
2013-01-31 10:07:00,40.6,19.4,30.03,WNW,295,6.0,8.0,42,0.00,,,0.08,meteohub,2013-01-31 15:07:00,
2013-01-31 10:12:00,40.6,18.9,30.03,NNW,334,4.0,8.0,41,0.00,,,0.08,meteohub,2013-01-31 15:12:00,
2013-01-31 10:17:00,40.8,19.6,30.03,NNE,16,10.0,10.0,42,0.00,,,0.08,meteohub,2013-01-31 15:17:00,
2013-01-31 10:22:00,40.8,19.6,30.03,WSW,257,5.0,10.0,42,0.00,,,0.08,meteohub,2013-01-31 15:22:00,
2013-01-31 10:27:00,41.0,19.6,30.03,NW,315,6.0,11.0,42,0.00,,,0.08,meteohub,2013-01-31 15:27:00,
2013-01-31 10:32:00,41.2,19.8,30.03,WNW,291,0.0,11.0,42,0.00,,,0.08,meteohub,2013-01-31 15:32:00,
2013-01-31 10:37:00,41.2,19.8,30.03,North,5,4.0,11.0,42,0.00,,,0.08,meteohub,2013-01-31 15:37:00,
2013-01-31 10:42:00,41.4,19.9,30.03,NNW,329,3.0,8.0,42,0.00,,,0.08,meteohub,2013-01-31 15:42:00,
2013-01-31 10:48:00,41.4,19.9,30.03,NNW,328,4.0,8.0,42,0.00,,,0.08,meteohub,2013-01-31 15:48:00,
2013-01-31 10:53:00,41.5,19.6,30.03,NW,326,5.0,8.0,41,0.00,,,0.08,meteohub,2013-01-31 15:53:00,
2013-01-31 10:58:00,41.5,19.6,30.03,East,83,2.0,9.0,41,0.00,,,0.08,meteohub,2013-01-31 15:58:00,
2013-01-31 11:03:00,41.7,19.8,30.03,NW,307,3.0,9.0,41,0.00,,,0.08,meteohub,2013-01-31 16:03:00,
2013-01-31 11:08:00,41.9,19.9,30.03,NNE,32,8.0,9.0,41,0.00,,,0.08,meteohub,2013-01-31 16:08:00,
2013-01-31 11:13:00,41.9,19.9,30.03,North,3,2.0,8.0,41,0.00,,,0.08,meteohub,2013-01-31 16:13:00,
2013-01-31 11:18:00,41.9,19.9,30.03,NW,309,2.0,11.0,41,0.00,,,0.08,meteohub,2013-01-31 16:18:00,
2013-01-31 11:23:00,42.3,20.3,30.03,WNW,285,5.0,11.0,41,0.00,,,0.08,meteohub,2013-01-31 16:23:00,
2013-01-31 11:28:00,42.3,19.6,30.03,SW,221,0.0,11.0,40,0.00,,,0.08,meteohub,2013-01-31 16:28:00,
2013-01-31 11:33:00,42.3,19.6,30.03,WSW,251,8.0,9.0,40,0.00,,,0.08,meteohub,2013-01-31 16:33:00,
2013-01-31 11:38:00,42.4,19.8,30.03,NNW,348,3.0,9.0,40,0.00,,,0.08,meteohub,2013-01-31 16:38:00,
2013-01-31 11:43:00,42.4,19.2,30.03,North,10,3.0,12.0,39,0.00,,,0.08,meteohub,2013-01-31 16:43:00,
2013-01-31 11:48:00,42.6,19.9,30.03,NNW,331,10.0,12.0,40,0.00,,,0.08,meteohub,2013-01-31 16:48:00,
2013-01-31 11:53:00,42.8,19.6,30.03,East,85,4.0,12.0,39,0.00,,,0.08,meteohub,2013-01-31 16:53:00,
2013-01-31 11:58:00,42.8,18.9,30.03,WSW,250,5.0,12.0,38,0.00,,,0.08,meteohub,2013-01-31 16:58:00,
2013-01-31 12:03:00,42.8,18.9,30.03,NW,308,6.0,11.0,38,0.00,,,0.08,meteohub,2013-01-31 17:03:00,
2013-01-31 12:08:00,43.0,19.0,30.03,NNW,339,2.0,11.0,38,0.00,,,0.08,meteohub,2013-01-31 17:08:00,
2013-01-31 12:13:00,43.2,19.2,30.03,WNW,285,4.0,11.0,38,0.00,,,0.08,meteohub,2013-01-31 17:13:00,
2013-01-31 12:18:00,43.2,19.2,30.03,WSW,238,6.0,10.0,38,0.00,,,0.08,meteohub,2013-01-31 17:18:00,
2013-01-31 12:23:00,43.3,19.4,30.03,West,277,9.0,10.0,38,0.00,,,0.08,meteohub,2013-01-31 17:23:00,
2013-01-31 12:28:00,43.2,19.2,30.03,North,2,5.0,13.0,38,0.00,,,0.08,meteohub,2013-01-31 17:28:00,
2013-01-31 12:33:00,43.3,19.4,30.03,North,0,6.0,13.0,38,0.00,,,0.08,meteohub,2013-01-31 17:33:00,
2013-01-31 12:38:00,43.5,19.0,30.03,West,276,6.0,13.0,37,0.00,,,0.08,meteohub,2013-01-31 17:38:00,
2013-01-31 12:43:00,43.5,18.3,30.03,North,353,3.0,13.0,36,0.00,,,0.08,meteohub,2013-01-31 17:43:00,
2013-01-31 12:48:00,43.7,18.5,30.03,NNE,31,4.0,13.0,36,0.00,,,0.08,meteohub,2013-01-31 17:48:00,
2013-01-31 12:53:00,43.9,18.0,30.03,NNE,21,4.0,13.0,35,0.00,,,0.08,meteohub,2013-01-31 17:53:00,
2013-01-31 12:58:00,44.1,18.9,30.03,NW,326,6.0,11.0,36,0.00,,,0.08,meteohub,2013-01-31 17:58:00,
2013-01-31 13:03:00,44.2,18.3,30.03,NNW,333,8.0,11.0,35,0.00,,,0.08,meteohub,2013-01-31 18:03:00,
2013-01-31 13:08:00,44.2,17.6,30.03,NW,310,11.0,11.0,34,0.00,,,0.08,meteohub,2013-01-31 18:08:00,
2013-01-31 13:13:00,44.4,17.1,30.03,SSW,201,10.0,15.0,33,0.00,,,0.08,meteohub,2013-01-31 18:13:00,
2013-01-31 13:18:00,44.6,16.5,30.03,WNW,293,8.0,15.0,32,0.00,,,0.08,meteohub,2013-01-31 18:18:00,
2013-01-31 13:23:00,44.6,16.5,30.03,West,271,4.0,12.0,32,0.00,,,0.08,meteohub,2013-01-31 18:23:00,
2013-01-31 13:28:00,44.6,16.5,30.03,WNW,282,3.0,12.0,32,0.00,,,0.08,meteohub,2013-01-31 18:28:00,
2013-01-31 13:33:00,44.8,16.7,30.03,NNE,19,5.0,11.0,32,0.00,,,0.08,meteohub,2013-01-31 18:33:00,
2013-01-31 13:38:00,44.8,16.0,30.03,NE,53,4.0,11.0,31,0.00,,,0.08,meteohub,2013-01-31 18:38:00,
2013-01-31 13:43:00,44.8,16.0,30.03,West,268,8.0,11.0,31,0.00,,,0.08,meteohub,2013-01-31 18:43:00,
2013-01-31 13:48:00,44.8,16.0,30.03,NNW,328,3.0,11.0,31,0.00,,,0.08,meteohub,2013-01-31 18:48:00,
2013-01-31 13:53:00,44.8,16.0,30.03,WNW,282,8.0,11.0,31,0.00,,,0.08,meteohub,2013-01-31 18:53:00,
2013-01-31 13:58:00,44.8,16.0,30.03,NE,50,8.0,15.0,31,0.00,,,0.08,meteohub,2013-01-31 18:58:00,
2013-01-31 14:03:00,44.8,15.3,30.03,West,269,6.0,15.0,30,0.00,,,0.08,meteohub,2013-01-31 19:03:00,
2013-01-31 14:09:00,44.8,15.3,30.03,SSW,196,3.0,15.0,30,0.00,,,0.08,meteohub,2013-01-31 19:09:00,
2013-01-31 14:14:00,45.0,16.2,30.03,NNW,344,5.0,15.0,31,0.00,,,0.08,meteohub,2013-01-31 19:14:00,
2013-01-31 14:18:00,45.1,16.3,30.03,NNE,15,3.0,15.0,31,0.00,,,0.08,meteohub,2013-01-31 19:18:00,
2013-01-31 14:24:00,45.0,15.4,30.03,WNW,290,6.0,13.0,30,0.00,,,0.08,meteohub,2013-01-31 19:24:00,
2013-01-31 14:29:00,45.1,15.6,30.03,SW,218,3.0,13.0,30,0.00,,,0.08,meteohub,2013-01-31 19:29:00,
2013-01-31 14:33:00,45.1,16.3,30.03,North,1,3.0,11.0,31,0.00,,,0.08,meteohub,2013-01-31 19:33:00,
2013-01-31 14:38:00,45.1,15.6,30.03,NW,312,8.0,9.0,30,0.00,,,0.08,meteohub,2013-01-31 19:38:00,
2013-01-31 14:43:00,45.3,15.6,30.03,NNW,331,8.0,9.0,30,0.00,,,0.08,meteohub,2013-01-31 19:43:00,
2013-01-31 14:49:00,45.1,15.6,30.03,West,259,8.0,10.0,30,0.00,,,0.08,meteohub,2013-01-31 19:49:00,
2013-01-31 14:54:00,45.1,15.6,30.03,NNE,16,11.0,11.0,30,0.00,,,0.08,meteohub,2013-01-31 19:54:00,
2013-01-31 14:59:00,45.3,15.6,30.03,NNW,329,6.0,11.0,30,0.00,,,0.08,meteohub,2013-01-31 19:59:00,
2013-01-31 15:04:00,45.3,15.6,30.03,NW,305,8.0,11.0,30,0.00,,,0.08,meteohub,2013-01-31 20:04:00,
2013-01-31 15:09:00,45.3,15.6,30.03,North,6,4.0,12.0,30,0.00,,,0.08,meteohub,2013-01-31 20:09:00,
2013-01-31 15:14:00,45.3,15.6,30.03,NNE,16,5.0,12.0,30,0.00,,,0.08,meteohub,2013-01-31 20:14:00,
2013-01-31 15:19:00,45.3,15.6,30.03,NNE,20,0.0,15.0,30,0.00,,,0.08,meteohub,2013-01-31 20:19:00,
2013-01-31 15:24:00,45.5,15.1,30.03,North,6,4.0,15.0,29,0.00,,,0.08,meteohub,2013-01-31 20:24:00,
2013-01-31 15:29:00,45.3,15.6,30.06,North,9,8.0,15.0,30,0.00,,,0.08,meteohub,2013-01-31 20:29:00,
2013-01-31 15:34:00,45.3,15.6,30.06,WSW,258,3.0,10.0,30,0.00,,,0.08,meteohub,2013-01-31 20:34:00,
2013-01-31 15:39:00,45.5,15.1,30.06,North,1,8.0,12.0,29,0.00,,,0.08,meteohub,2013-01-31 20:39:00,
2013-01-31 15:44:00,45.5,15.1,30.06,North,357,3.0,12.0,29,0.00,,,0.08,meteohub,2013-01-31 20:44:00,
2013-01-31 15:49:00,45.3,14.9,30.06,North,10,9.0,12.0,29,0.00,,,0.08,meteohub,2013-01-31 20:49:00,
2013-01-31 15:54:00,45.3,14.9,30.06,NE,36,6.0,12.0,29,0.00,,,0.08,meteohub,2013-01-31 20:54:00,
2013-01-31 15:59:00,45.5,14.4,30.06,North,357,6.0,10.0,28,0.00,,,0.08,meteohub,2013-01-31 20:59:00,
2013-01-31 16:04:00,45.3,14.9,30.06,North,10,5.0,11.0,29,0.00,,,0.08,meteohub,2013-01-31 21:04:00,
2013-01-31 16:09:00,45.3,14.9,30.06,North,353,6.0,11.0,29,0.00,,,0.08,meteohub,2013-01-31 21:09:00,
2013-01-31 16:14:00,45.3,14.9,30.06,North,1,3.0,11.0,29,0.00,,,0.08,meteohub,2013-01-31 21:14:00,
2013-01-31 16:19:00,45.3,14.9,30.06,NW,321,3.0,11.0,29,0.00,,,0.08,meteohub,2013-01-31 21:19:00,
2013-01-31 16:24:00,45.5,15.1,30.06,North,7,6.0,11.0,29,0.00,,,0.08,meteohub,2013-01-31 21:24:00,
2013-01-31 16:29:00,45.3,14.9,30.06,NW,312,4.0,8.0,29,0.00,,,0.08,meteohub,2013-01-31 21:29:00,
2013-01-31 16:34:00,45.1,14.7,30.06,NW,326,4.0,10.0,29,0.00,,,0.08,meteohub,2013-01-31 21:34:00,
2013-01-31 16:39:00,45.1,15.6,30.06,North,2,4.0,10.0,30,0.00,,,0.08,meteohub,2013-01-31 21:39:00,
2013-01-31 16:44:00,45.1,15.6,30.06,NW,305,3.0,8.0,30,0.00,,,0.08,meteohub,2013-01-31 21:44:00,
2013-01-31 16:49:00,45.0,15.4,30.06,West,267,4.0,8.0,30,0.00,,,0.08,meteohub,2013-01-31 21:49:00,
2013-01-31 16:54:00,44.8,15.3,30.06,NNE,23,3.0,8.0,30,0.00,,,0.08,meteohub,2013-01-31 21:54:00,
2013-01-31 16:59:00,44.8,15.3,30.06,WNW,299,0.0,6.0,30,0.00,,,0.08,meteohub,2013-01-31 21:59:00,
2013-01-31 17:04:00,44.8,15.3,30.06,NNE,17,6.0,7.0,30,0.00,,,0.08,meteohub,2013-01-31 22:04:00,
2013-01-31 17:09:00,44.8,15.3,30.06,WSW,250,4.0,8.0,30,0.00,,,0.08,meteohub,2013-01-31 22:09:00,
2013-01-31 17:14:00,44.6,15.1,30.06,North,0,3.0,8.0,30,0.00,,,0.08,meteohub,2013-01-31 22:14:00,
2013-01-31 17:19:00,44.4,15.6,30.06,North,10,3.0,8.0,31,0.00,,,0.08,meteohub,2013-01-31 22:19:00,
2013-01-31 17:24:00,44.2,14.7,30.06,NNW,334,3.0,8.0,30,0.00,,,0.08,meteohub,2013-01-31 22:24:00,
2013-01-31 17:29:00,44.2,14.7,30.06,North,353,2.0,8.0,30,0.00,,,0.08,meteohub,2013-01-31 22:29:00,
2013-01-31 17:34:00,44.1,15.3,30.06,WNW,300,5.0,8.0,31,0.00,,,0.08,meteohub,2013-01-31 22:34:00,
2013-01-31 17:39:00,43.7,15.1,30.06,NNW,340,0.0,8.0,31,0.00,,,0.08,meteohub,2013-01-31 22:39:00,
2013-01-31 17:44:00,43.7,15.1,30.06,West,264,3.0,7.0,31,0.00,,,0.08,meteohub,2013-01-31 22:44:00,
2013-01-31 17:49:00,43.5,14.9,30.06,SW,227,0.0,6.0,31,0.00,,,0.08,meteohub,2013-01-31 22:49:00,
2013-01-31 17:54:00,43.3,14.7,30.06,NNE,30,5.0,6.0,31,0.00,,,0.08,meteohub,2013-01-31 22:54:00,
2013-01-31 17:59:00,43.0,14.4,30.06,West,267,0.0,6.0,31,0.00,,,0.08,meteohub,2013-01-31 22:59:00,
2013-01-31 18:04:00,42.8,14.9,30.06,North,8,2.0,6.0,32,0.00,,,0.08,meteohub,2013-01-31 23:04:00,
2013-01-31 18:09:00,42.6,15.4,30.06,WNW,289,6.0,6.0,33,0.00,,,0.08,meteohub,2013-01-31 23:09:00,
2013-01-31 18:14:00,42.4,15.4,30.09,North,353,3.0,6.0,33,0.00,,,0.08,meteohub,2013-01-31 23:14:00,
2013-01-31 18:19:00,42.3,15.8,30.09,NW,322,0.0,6.0,34,0.00,,,0.08,meteohub,2013-01-31 23:19:00,
2013-01-31 18:25:00,42.1,15.8,30.09,North,349,0.0,6.0,34,0.00,,,0.08,meteohub,2013-01-31 23:25:00,
2013-01-31 18:30:00,41.9,15.6,30.09,NNW,342,0.0,4.0,34,0.00,,,0.08,meteohub,2013-01-31 23:30:00,
2013-01-31 18:35:00,41.7,15.4,30.09,NW,313,0.0,4.0,34,0.00,,,0.08,meteohub,2013-01-31 23:35:00,
2013-01-31 18:40:00,41.5,15.3,30.09,WNW,303,0.0,5.0,34,0.00,,,0.08,meteohub,2013-01-31 23:40:00,
2013-01-31 18:45:00,41.5,15.3,30.09,North,357,0.0,5.0,34,0.00,,,0.08,meteohub,2013-01-31 23:45:00,
2013-01-31 18:50:00,41.4,15.8,30.09,NNE,16,0.0,4.0,35,0.00,,,0.08,meteohub,2013-01-31 23:50:00,
2013-01-31 18:55:00,41.4,15.1,30.09,WNW,300,0.0,7.0,34,0.00,,,0.08,meteohub,2013-01-31 23:55:00,
2013-01-31 19:00:00,41.2,15.6,30.09,WNW,287,3.0,7.0,35,0.00,,,0.08,meteohub,2013-02-01 00:00:00,
2013-01-31 19:05:00,41.0,15.4,30.09,North,5,3.0,7.0,35,0.00,,,0.00,meteohub,2013-02-01 00:05:00,
2013-01-31 19:10:00,41.0,15.4,30.09,NW,309,3.0,6.0,35,0.00,,,0.00,meteohub,2013-02-01 00:10:00,
2013-01-31 19:15:00,41.0,14.7,30.09,WSW,258,4.0,5.0,34,0.00,,,0.00,meteohub,2013-02-01 00:15:00,
2013-01-31 19:20:00,41.0,15.4,30.09,North,353,0.0,6.0,35,0.00,,,0.00,meteohub,2013-02-01 00:20:00,
2013-01-31 19:25:00,40.8,16.0,30.09,WNW,286,0.0,6.0,36,0.00,,,0.00,meteohub,2013-02-01 00:25:00,
2013-01-31 19:30:00,40.8,16.0,30.09,West,277,2.0,6.0,36,0.00,,,0.00,meteohub,2013-02-01 00:30:00,
2013-01-31 19:35:00,40.8,15.3,30.09,WNW,295,0.0,5.0,35,0.00,,,0.00,meteohub,2013-02-01 00:35:00,
2013-01-31 19:57:00,40.5,15.6,30.12,NNW,336,3.0,6.0,36,0.00,,,0.00,meteohub,2013-02-01 00:57:00,
2013-01-31 20:02:00,40.3,15.4,30.09,WSW,247,0.0,6.0,36,0.00,,,0.00,meteohub,2013-02-01 01:02:00,
2013-01-31 20:07:00,39.9,15.1,30.09,North,350,0.0,6.0,36,0.00,,,0.00,meteohub,2013-02-01 01:07:00,
2013-01-31 20:12:00,39.7,15.6,30.09,NNW,338,0.0,3.0,37,0.00,,,0.00,meteohub,2013-02-01 01:12:00,
2013-01-31 20:17:00,39.7,16.2,30.12,NW,313,3.0,3.0,38,0.00,,,0.00,meteohub,2013-02-01 01:17:00,
2013-01-31 20:22:00,39.7,16.2,30.12,SW,215,0.0,3.0,38,0.00,,,0.00,meteohub,2013-02-01 01:22:00,
2013-01-31 20:27:00,39.7,16.2,30.12,SW,230,0.0,5.0,38,0.00,,,0.00,meteohub,2013-02-01 01:27:00,
2013-01-31 20:32:00,39.6,16.7,30.12,North,1,3.0,6.0,39,0.00,,,0.00,meteohub,2013-02-01 01:32:00,
2013-01-31 20:37:00,39.6,16.7,30.12,SW,228,0.0,6.0,39,0.00,,,0.00,meteohub,2013-02-01 01:37:00,
2013-01-31 20:42:00,39.4,16.5,30.12,WNW,297,3.0,4.0,39,0.00,,,0.00,meteohub,2013-02-01 01:42:00,
2013-01-31 20:47:00,39.2,16.3,30.12,SW,234,0.0,4.0,39,0.00,,,0.00,meteohub,2013-02-01 01:47:00,
2013-01-31 20:52:00,39.2,16.3,30.12,NNE,32,0.0,4.0,39,0.00,,,0.00,meteohub,2013-02-01 01:52:00,
2013-01-31 20:57:00,39.2,16.3,30.12,WSW,248,3.0,5.0,39,0.00,,,0.00,meteohub,2013-02-01 01:57:00,
2013-01-31 21:02:00,39.0,16.2,30.12,West,272,0.0,5.0,39,0.00,,,0.00,meteohub,2013-02-01 02:02:00,
2013-01-31 21:07:00,38.8,16.5,30.12,NNW,329,0.0,5.0,40,0.00,,,0.00,meteohub,2013-02-01 02:07:00,
2013-01-31 21:13:00,38.7,16.3,30.12,North,0,0.0,4.0,40,0.00,,,0.00,meteohub,2013-02-01 02:13:00,
2013-01-31 21:18:00,38.7,16.3,30.12,West,278,2.0,4.0,40,0.00,,,0.00,meteohub,2013-02-01 02:18:00,
2013-01-31 21:23:00,38.7,16.3,30.12,NNW,327,3.0,5.0,40,0.00,,,0.00,meteohub,2013-02-01 02:23:00,
2013-01-31 21:28:00,38.5,16.3,30.12,ENE,72,0.0,5.0,40,0.00,,,0.00,meteohub,2013-02-01 02:28:00,
2013-01-31 21:33:00,38.5,16.3,30.12,North,353,4.0,5.0,40,0.00,,,0.00,meteohub,2013-02-01 02:33:00,
2013-01-31 21:38:00,38.5,16.3,30.12,West,266,0.0,5.0,40,0.00,,,0.00,meteohub,2013-02-01 02:38:00,
2013-01-31 21:43:00,38.5,16.3,30.12,West,267,2.0,6.0,40,0.00,,,0.00,meteohub,2013-02-01 02:43:00,
2013-01-31 21:48:00,38.7,16.3,30.12,NNW,340,5.0,6.0,40,0.00,,,0.00,meteohub,2013-02-01 02:48:00,
2013-01-31 21:53:00,38.7,16.3,30.12,NNE,17,3.0,10.0,40,0.00,,,0.00,meteohub,2013-02-01 02:53:00,
2013-01-31 21:58:00,38.7,16.3,30.12,North,9,5.0,10.0,40,0.00,,,0.00,meteohub,2013-02-01 02:58:00,
2013-01-31 22:03:00,38.7,16.3,30.15,SW,230,0.0,5.0,40,0.00,,,0.00,meteohub,2013-02-01 03:03:00,
2013-01-31 22:08:00,38.7,16.3,30.15,NNW,339,2.0,6.0,40,0.00,,,0.00,meteohub,2013-02-01 03:08:00,
2013-01-31 22:13:00,38.5,16.3,30.15,West,263,3.0,6.0,40,0.00,,,0.00,meteohub,2013-02-01 03:13:00,
2013-01-31 22:18:00,38.5,16.3,30.15,West,261,3.0,8.0,40,0.00,,,0.00,meteohub,2013-02-01 03:18:00,
2013-01-31 22:23:00,38.5,16.9,30.15,ESE,114,0.0,8.0,41,0.00,,,0.00,meteohub,2013-02-01 03:23:00,
2013-01-31 22:28:00,38.5,16.9,30.15,SW,236,0.0,8.0,41,0.00,,,0.00,meteohub,2013-02-01 03:28:00,
2013-01-31 22:33:00,38.5,16.9,30.15,North,357,0.0,6.0,41,0.00,,,0.00,meteohub,2013-02-01 03:33:00,
2013-01-31 22:38:00,38.5,16.9,30.15,WSW,254,5.0,6.0,41,0.00,,,0.00,meteohub,2013-02-01 03:38:00,
2013-01-31 22:43:00,38.5,16.9,30.15,NE,39,3.0,6.0,41,0.00,,,0.00,meteohub,2013-02-01 03:43:00,
2013-01-31 22:48:00,38.5,16.9,30.15,ESE,108,0.0,6.0,41,0.00,,,0.00,meteohub,2013-02-01 03:48:00,
2013-01-31 22:53:00,38.5,16.9,30.15,SSE,166,0.0,8.0,41,0.00,,,0.00,meteohub,2013-02-01 03:53:00,
2013-01-31 22:58:00,38.3,16.7,30.15,NW,310,3.0,8.0,41,0.00,,,0.00,meteohub,2013-02-01 03:58:00,
2013-01-31 23:03:00,38.3,17.2,30.15,NW,324,0.0,6.0,42,0.00,,,0.00,meteohub,2013-02-01 04:03:00,
2013-01-31 23:08:00,38.3,17.2,30.15,SW,236,0.0,8.0,42,0.00,,,0.00,meteohub,2013-02-01 04:08:00,
2013-01-31 23:17:00,37.9,16.9,30.15,NNW,340,0.0,8.0,42,0.00,,,0.00,meteohub,2013-02-01 04:17:00,
2013-01-31 23:23:00,37.9,16.9,30.15,WNW,296,5.0,8.0,42,0.00,,,0.00,meteohub,2013-02-01 04:23:00,
2013-01-31 23:28:00,37.9,16.9,30.15,NW,313,0.0,8.0,42,0.00,,,0.00,meteohub,2013-02-01 04:28:00,
2013-01-31 23:33:00,37.8,16.7,30.15,WSW,244,2.0,5.0,42,0.00,,,0.00,meteohub,2013-02-01 04:33:00,
2013-01-31 23:38:00,37.6,16.5,30.15,WSW,254,0.0,5.0,42,0.00,,,0.00,meteohub,2013-02-01 04:38:00,
2013-01-31 23:43:00,37.6,16.5,30.15,West,272,4.0,4.0,42,0.00,,,0.00,meteohub,2013-02-01 04:43:00,
2013-01-31 23:48:00,37.4,16.3,30.15,NNW,327,0.0,4.0,42,0.00,,,0.00,meteohub,2013-02-01 04:48:00,
2013-01-31 23:53:00,37.4,16.9,30.15,WNW,294,0.0,4.0,43,0.00,,,0.00,meteohub,2013-02-01 04:53:00,
2013-01-31 23:58:00,37.2,16.7,30.15,SSW,198,3.0,4.0,43,0.00,,,0.00,meteohub,2013-02-01 04:58:00,